Hauptseite
METAR-TAF:

METAR-TAF

Flughäfen :

Flughafen Alderney

Alderney,

Breite: 49-43N, Länge: 002-12W, Höhe: 71 m

Beobachtung

Neuester Wetterbericht von vor 5 Stunden und 8 Minuten, um 17:50 UTC
Wind 12 kt aus Ost/Nordost
Temperatur 11°C
Luftfeuchtigkeit 100%
Luftdruck 1022 hPa
Sichtweite: 3500 m
Durchbrochene Bewölkung in der Höhe von 200 ft
feuchter Dunst

METAR: EGJA 161750Z 07012KT 3500 BR BKN002 11/11 Q1022

Zeit: 22:58 (22:58 UTC)

Prognose

Neuester Wetterbericht von vor 9 Stunden und 0 Minuten, um 13:58 UTC
Gültige Prognose vom 16 um 15 UTC bis 16 um 19 UTC
Wind 10 kt aus Ost
Sichtweite: 6000 m
Aufgelockert bewölkt in der Höhe von 200 ft
Wahrscheinlichkeit 40% :
Zeitweise
vom 16 um 15 UTC bis 16 um 19 UTC
Sichtweite: 0200 m
Durchbrochene Bewölkung in der Höhe weniger als 100 ft
Nebel

TAF: EGJA 161358Z 1615/1619 10010KT 6000 SCT002 PROB40 TEMPO 1615/1619 0200 FG BKN000

Wetterbeobachtungen und Prognosen von mehr als 4000 Flughäfen (METAR und TAF Bericht).

Die verfügbaren Stationen werden durch gelbe und rote Markierungen auf der Karte dargestellt.

Führen Sie die Maus auf sie, um den Namen der Station zu sehen.

Darauf klicken, um die Beobachtung von Wetterbeobachtungen und Prognosen zu sehen.

Um die Karte zu ändern : klicken Sie auf den grünen Tasten mit einem schwarzen Kreuz Zum Vergrößern, auf den grünen Button mit einem Gedankenstrich zu verkleinern, oder auf die grünen Pfeile für benachbarte Karten.


METAR-TAF: